Time;durP1;ratioP1;P1;durP2;ratioP2;P2;SDS_P1;SDS_P2;PMS_P1;PMS_P2;Temp;Humidity;BMP_temperature;BMP_pressure;BME280_temperature;BME280_humidity;BME280_pressure;Samples;Min_cycle;Max_cycle;Signal;HPM_P1;HPM_P2
2021/06/17 00:02:12;;;;;;;2.33;1.15;;;24.40;46.10;;;;;;2343785;53;20976;-64
2021/06/17 00:04:39;;;;;;;2.72;1.55;;;24.30;46.00;;;;;;2340162;53;20940;-63
2021/06/17 00:07:05;;;;;;;2.75;1.40;;;24.30;46.10;;;;;;2582991;53;21017;-64
2021/06/17 00:09:34;;;;;;;2.37;1.25;;;24.30;46.20;;;;;;2344082;53;21009;-66
2021/06/17 00:12:01;;;;;;;3.15;1.33;;;24.30;46.30;;;;;;2343948;53;21478;-66
2021/06/17 00:14:30;;;;;;;2.50;1.40;;;24.30;46.30;;;;;;2341289;53;20933;-66
2021/06/17 00:16:57;;;;;;;3.25;1.42;;;24.30;46.60;;;;;;2342477;53;20924;-65
2021/06/17 00:19:23;;;;;;;3.90;1.55;;;24.40;46.60;;;;;;2340266;53;20974;-64
2021/06/17 00:21:50;;;;;;;3.65;1.60;;;24.40;46.60;;;;;;2339525;53;20909;-64
2021/06/17 00:24:17;;;;;;;3.08;1.42;;;24.40;46.60;;;;;;2420296;53;20987;-63
2021/06/17 00:26:43;;;;;;;2.95;1.50;;;24.40;46.70;;;;;;2335954;53;20972;-64
2021/06/17 00:29:10;;;;;;;2.62;1.42;;;24.40;46.70;;;;;;2340488;53;20933;-63
2021/06/17 00:31:36;;;;;;;4.60;1.83;;;24.40;46.80;;;;;;2343180;53;20965;-63
2021/06/17 00:34:02;;;;;;;3.10;1.58;;;24.50;47.00;;;;;;2339650;53;20993;-64
2021/06/17 00:36:29;;;;;;;2.83;1.65;;;24.50;47.00;;;;;;2342622;53;21864;-65
2021/06/17 00:38:55;;;;;;;3.30;1.83;;;24.40;46.90;;;;;;2343933;53;21551;-64
2021/06/17 00:41:21;;;;;;;2.97;1.80;;;24.50;47.10;;;;;;2342227;53;21028;-65
2021/06/17 00:43:47;;;;;;;2.40;1.42;;;24.50;47.10;;;;;;2339815;53;20924;-66
2021/06/17 00:46:13;;;;;;;4.07;1.60;;;24.50;47.10;;;;;;2339463;53;20925;-67
2021/06/17 00:48:40;;;;;;;3.20;1.90;;;24.50;47.10;;;;;;2339783;53;20961;-66
2021/06/17 00:51:06;;;;;;;4.22;1.90;;;24.50;47.10;;;;;;2339959;53;20908;-66
2021/06/17 00:53:33;;;;;;;4.55;1.90;;;24.50;47.20;;;;;;2344157;53;21804;-63
2021/06/17 00:55:59;;;;;;;3.33;1.70;;;24.50;47.20;;;;;;2342773;53;20973;-64
2021/06/17 00:58:26;;;;;;;4.72;1.62;;;24.50;47.20;;;;;;2325760;53;20949;-64
2021/06/17 01:00:52;;;;;;;3.83;1.87;;;24.50;47.20;;;;;;2580490;53;20937;-66
2021/06/17 01:03:18;;;;;;;2.90;1.65;;;24.50;47.40;;;;;;2340313;53;20940;-65
2021/06/17 01:05:46;;;;;;;2.90;1.75;;;24.50;47.50;;;;;;2344769;53;20976;-65
2021/06/17 01:08:19;;;;;;;3.28;1.67;;;24.50;47.60;;;;;;2345276;53;21004;-63
2021/06/17 01:14:23;;;;;;;3.58;1.70;;;24.50;47.70;;;;;;2344253;53;21757;-64
2021/06/17 01:16:57;;;;;;;3.90;1.40;;;24.50;47.70;;;;;;2347135;53;21383;-64
2021/06/17 01:20:12;;;;;;;2.58;1.48;;;24.50;47.40;;;;;;2340763;53;20968;-66
2021/06/17 01:22:52;;;;;;;2.95;1.37;;;24.50;47.60;;;;;;2322216;54;21016;-64
2021/06/17 01:27:29;;;;;;;2.72;1.40;;;24.50;47.80;;;;;;2346109;53;20996;-64
2021/06/17 01:29:59;;;;;;;2.35;1.25;;;24.50;47.80;;;;;;2339712;53;21012;-64
2021/06/17 01:32:25;;;;;;;3.03;1.77;;;24.50;47.30;;;;;;2347337;53;20972;-67
2021/06/17 01:34:51;;;;;;;2.80;1.50;;;24.50;47.30;;;;;;2341170;53;21915;-64
2021/06/17 01:37:19;;;;;;;3.80;1.90;;;24.40;47.30;;;;;;2416445;52;20972;-64
2021/06/17 01:39:45;;;;;;;3.20;1.62;;;24.40;47.40;;;;;;2346774;53;20957;-64
2021/06/17 01:42:12;;;;;;;3.50;1.70;;;24.40;47.50;;;;;;2343141;53;20972;-66
2021/06/17 01:44:38;;;;;;;4.72;1.80;;;24.30;47.50;;;;;;2451173;53;21000;-63
2021/06/17 01:47:05;;;;;;;2.78;1.40;;;24.30;47.50;;;;;;2343853;53;21004;-64
2021/06/17 01:49:34;;;;;;;2.75;1.58;;;24.30;47.60;;;;;;2579853;53;20944;-64
2021/06/17 01:52:00;;;;;;;4.45;1.77;;;24.30;47.70;;;;;;2323345;53;21021;-64
2021/06/17 01:54:27;;;;;;;4.55;1.65;;;24.30;47.80;;;;;;2342662;53;21866;-64
2021/06/17 01:56:54;;;;;;;3.97;1.58;;;24.30;47.90;;;;;;2339647;53;20969;-64
2021/06/17 01:59:20;;;;;;;3.22;1.95;;;24.20;47.90;;;;;;2340997;53;20976;-65
2021/06/17 02:01:47;;;;;;;3.05;1.73;;;24.20;48.50;;;;;;2346535;53;20932;-63
2021/06/17 02:04:13;;;;;;;4.00;2.10;;;24.20;48.00;;;;;;2235184;53;6013380;-63
2021/06/17 02:06:40;;;;;;;3.05;1.60;;;24.10;48.10;;;;;;2321803;53;20952;-64
2021/06/17 02:09:06;;;;;;;3.22;2.05;;;24.10;48.30;;;;;;2318607;53;20961;-64
2021/06/17 02:11:33;;;;;;;2.70;1.48;;;24.10;48.30;;;;;;2314898;53;21954;-65
2021/06/17 02:13:59;;;;;;;2.83;1.52;;;24.10;48.40;;;;;;2314780;53;21017;-64
2021/06/17 02:16:27;;;;;;;2.60;1.48;;;24.10;48.40;;;;;;2314848;53;21848;-64
2021/06/17 02:18:54;;;;;;;4.60;1.87;;;24.10;48.40;;;;;;2323181;53;21033;-64
2021/06/17 02:21:20;;;;;;;2.90;1.65;;;24.00;49.00;;;;;;2332402;53;21033;-64
2021/06/17 02:23:53;;;;;;;3.15;1.90;;;24.00;48.40;;;;;;2563598;53;21033;-64
2021/06/17 02:26:19;;;;;;;;;;;23.90;48.60;;;;;;2554213;53;21564;-65
2021/06/17 02:28:47;;;;;;;4.10;1.50;;;23.90;48.60;;;;;;2313623;53;20119;-64
2021/06/17 02:31:24;;;;;;;3.10;1.55;;;23.90;48.20;;;;;;2316965;53;20949;-65
2021/06/17 02:33:54;;;;;;;4.47;1.90;;;23.90;48.60;;;;;;2315965;53;20972;-63
2021/06/17 02:36:24;;;;;;;3.05;1.80;;;23.90;48.70;;;;;;2314857;53;21012;-65
2021/06/17 02:38:51;;;;;;;4.15;2.00;;;23.80;48.50;;;;;;2296159;53;21001;-65
2021/06/17 02:41:18;;;;;;;3.10;1.58;;;23.80;48.60;;;;;;2337437;53;21039;-64
2021/06/17 02:43:45;;;;;;;3.20;1.77;;;23.80;48.70;;;;;;2321244;53;20993;-66
2021/06/17 02:46:11;;;;;;;3.10;1.60;;;23.70;48.80;;;;;;2323210;53;21006;-64
2021/06/17 02:48:40;;;;;;;3.40;1.77;;;23.70;48.80;;;;;;2335357;53;20988;-64
2021/06/17 02:51:09;;;;;;;5.30;1.90;;;23.70;48.90;;;;;;2564255;53;20934;-64
2021/06/17 02:53:36;;;;;;;2.60;1.40;;;23.70;49.00;;;;;;2342174;53;20991;-65
2021/06/17 02:56:05;;;;;;;3.75;1.83;;;23.60;48.80;;;;;;2328092;53;20976;-65
2021/06/17 02:59:56;;;;;;;3.35;1.77;;;23.60;48.90;;;;;;2314555;53;20932;-65
2021/06/17 03:02:49;;;;;;;2.37;1.20;;;23.60;49.30;;;;;;2268595;55;21029;-64
2021/06/17 03:05:22;;;;;;;3.30;1.50;;;23.50;48.90;;;;;;2273383;55;21061;-64
2021/06/17 03:09:21;;;;;;;3.53;1.40;;;23.50;48.70;;;;;;2261560;55;21048;-63
2021/06/17 03:11:49;;;;;;;3.05;1.55;;;23.50;48.70;;;;;;2272303;55;21062;-66
2021/06/17 03:14:18;;;;;;;2.80;1.35;;;23.40;48.70;;;;;;2269081;55;20930;-64
2021/06/17 03:16:49;;;;;;;2.53;1.33;;;23.40;48.90;;;;;;2265943;55;20974;-64
2021/06/17 03:19:16;;;;;;;4.45;1.45;;;23.40;48.90;;;;;;2264494;55;20985;-64
2021/06/17 03:21:50;;;;;;;2.50;1.20;;;23.40;49.00;;;;;;2263063;55;21069;-63
2021/06/17 03:24:17;;;;;;;2.47;1.37;;;23.30;49.20;;;;;;2262859;55;21100;-64
2021/06/17 03:26:44;;;;;;;2.78;1.40;;;23.30;48.90;;;;;;2488139;55;21797;-63
2021/06/17 03:29:11;;;;;;;3.45;1.60;;;23.30;49.00;;;;;;2271921;55;21034;-62
2021/06/17 03:31:37;;;;;;;2.78;1.75;;;23.30;49.10;;;;;;2262977;55;20978;-64
2021/06/17 03:34:04;;;;;;;5.60;1.50;;;23.30;49.30;;;;;;2262689;55;21079;-64
2021/06/17 03:36:30;;;;;;;3.00;1.60;;;23.20;49.20;;;;;;2290871;54;20990;-67
2021/06/17 03:38:57;;;;;;;3.83;2.08;;;23.20;49.20;;;;;;2289024;54;21010;-64
2021/06/17 03:41:23;;;;;;;3.53;1.77;;;23.20;49.40;;;;;;2292894;54;20930;-64
2021/06/17 03:43:50;;;;;;;3.12;1.85;;;23.10;49.30;;;;;;2520265;54;20973;-64
2021/06/17 03:46:18;;;;;;;5.12;1.73;;;23.10;49.50;;;;;;2290577;54;21046;-65
2021/06/17 03:48:44;;;;;;;5.32;1.92;;;23.10;49.70;;;;;;2293144;54;20993;-65
2021/06/17 03:51:11;;;;;;;6.47;2.05;;;23.10;49.80;;;;;;2292905;54;20962;-65
2021/06/17 03:53:39;;;;;;;2.95;1.62;;;23.10;49.90;;;;;;2293167;54;21029;-65
2021/06/17 03:56:05;;;;;;;3.75;2.05;;;23.00;50.00;;;;;;2293472;54;21013;-63
2021/06/17 03:58:32;;;;;;;3.40;1.90;;;23.10;50.10;;;;;;2311838;54;21009;-64
2021/06/17 04:00:58;;;;;;;3.78;1.80;;;23.10;50.20;;;;;;2312188;54;20941;-64
2021/06/17 04:03:29;;;;;;;2.87;1.37;;;23.00;50.10;;;;;;2312209;54;20949;-64
2021/06/17 04:05:58;;;;;;;3.28;1.50;;;23.00;50.00;;;;;;2282327;54;21097;-64
2021/06/17 04:08:29;;;;;;;3.05;1.52;;;23.00;49.80;;;;;;2310218;54;20936;-64
2021/06/17 04:10:59;;;;;;;2.80;1.52;;;23.10;50.10;;;;;;2311601;54;21116;-64
2021/06/17 04:13:28;;;;;;;3.03;1.50;;;23.10;50.00;;;;;;2311378;54;20953;-64
2021/06/17 04:15:55;;;;;;;2.70;1.50;;;23.10;50.00;;;;;;2276775;55;22197;-66
2021/06/17 04:18:23;;;;;;;4.62;1.73;;;23.10;50.00;;;;;;2549436;54;21010;-63
2021/06/17 04:20:50;;;;;;;2.97;1.60;;;23.20;50.10;;;;;;2310696;55;21017;-64
2021/06/17 04:23:19;;;;;;;2.75;1.40;;;23.20;50.10;;;;;;2298723;54;21002;-64
2021/06/17 04:25:45;;;;;;;5.90;1.60;;;23.20;50.30;;;;;;2422440;54;21564;-64
